Time;durP1;ratioP1;P1;durP2;ratioP2;P2;SDS_P1;SDS_P2;PMS_P1;PMS_P2;Temp;Humidity;BMP_temperature;BMP_pressure;BME280_temperature;BME280_humidity;BME280_pressure;Samples;Min_cycle;Max_cycle;Signal;HPM_P1;HPM_P2
2022/09/05 00:02:56;;;;;;;8.10;5.07;;;;;;;16.14;79.09;100635.91;4389454;32;33556;-89
2022/09/05 00:05:23;;;;;;;7.53;5.75;;;;;;;16.37;78.37;100636.72;4369814;32;33791;-89
2022/09/05 00:07:57;;;;;;;6.72;5.22;;;;;;;16.30;78.32;100644.37;4424240;32;33245;-89
2022/09/05 00:10:47;;;;;;;6.55;4.70;;;;;;;16.03;79.62;100641.66;4430165;32;33666;-89
2022/09/05 00:13:38;;;;;;;7.78;5.12;;;;;;;16.34;77.94;100647.97;4435397;32;34538;-90
2022/09/05 00:16:41;;;;;;;7.43;5.35;;;;;;;16.03;79.52;100640.75;4430925;32;34487;-90
2022/09/05 00:19:49;;;;;;;8.95;5.07;;;;;;;15.94;79.65;100643.06;4419772;32;33907;-89
2022/09/05 00:23:18;;;;;;;6.30;5.05;;;;;;;16.00;78.77;100640.66;4429182;32;33621;-89
2022/09/05 00:26:25;;;;;;;6.55;4.68;;;;;;;16.09;78.56;100646.22;4401910;32;33714;-89
2022/09/05 00:29:14;;;;;;;9.15;5.30;;;;;;;15.76;80.37;100635.41;4381284;32;33887;-88
2022/09/05 00:32:16;;;;;;;8.02;5.47;;;;;;;15.85;80.26;100636.63;4428378;32;33172;-90
2022/09/05 00:35:10;;;;;;;8.10;5.55;;;;;;;15.73;80.68;100636.19;4427033;32;31913;-89
2022/09/05 00:37:41;;;;;;;8.25;5.60;;;;;;;15.69;81.10;100642.09;4408703;32;34129;-90
2022/09/05 00:40:28;;;;;;;8.63;5.65;;;;;;;15.71;81.22;100643.06;4427757;32;34611;-90
2022/09/05 00:43:03;;;;;;;8.82;5.50;;;;;;;15.82;80.64;100633.94;4447276;32;32575;-89
2022/09/05 00:45:34;;;;;;;;;;;;;;;15.75;80.81;100633.66;4435374;32;33357;-90
2022/09/05 00:48:11;;;;;;;8.15;5.55;;;;;;;15.70;81.05;100636.94;4432623;32;33695;-88
2022/09/05 00:50:57;;;;;;;10.45;5.87;;;;;;;15.68;81.11;100637.69;4434782;32;33110;-88
2022/09/05 00:53:32;;;;;;;9.57;5.43;;;;;;;15.74;80.37;100637.94;4447026;32;33135;-90
2022/09/05 00:56:38;;;;;;;7.28;5.32;;;;;;;15.64;80.68;100638.41;4435013;32;34032;-88
2022/09/05 00:59:40;;;;;;;7.57;5.50;;;;;;;15.54;80.85;100640.69;4436958;32;34552;-90
2022/09/05 01:02:24;;;;;;;7.45;5.10;;;;;;;15.53;80.68;100632.81;4429603;32;33623;-89
2022/09/05 01:05:25;;;;;;;8.82;5.30;;;;;;;15.42;81.08;100632.38;4431328;32;34387;-88
2022/09/05 01:08:02;;;;;;;8.88;5.10;;;;;;;15.60;80.28;100633.91;4425152;32;32883;-89
2022/09/05 01:10:57;;;;;;;8.18;5.40;;;;;;;15.68;79.40;100627.25;4422430;32;34536;-89
2022/09/05 01:13:30;;;;;;;7.93;5.47;;;;;;;15.62;79.43;100627.03;4415705;32;33967;-88
2022/09/05 01:16:12;;;;;;;8.27;5.60;;;;;;;15.59;79.73;100629.50;4410453;32;32171;-89
2022/09/05 01:19:22;;;;;;;7.07;5.25;;;;;;;15.64;79.31;100627.97;4423035;32;33212;-89
2022/09/05 01:22:20;;;;;;;6.78;4.90;;;;;;;15.49;80.00;100631.81;4381355;32;34038;-88
2022/09/05 01:25:11;;;;;;;7.00;5.20;;;;;;;15.66;79.17;100627.19;4363603;32;33500;-89
2022/09/05 01:28:05;;;;;;;7.00;4.80;;;;;;;15.56;79.39;100627.69;4417870;32;33720;-89
2022/09/05 01:31:01;;;;;;;6.95;4.95;;;;;;;15.44;80.00;100628.13;4424958;32;33157;-88
2022/09/05 01:34:10;;;;;;;7.28;5.07;;;;;;;15.30;80.24;100621.47;4430429;32;34569;-89
2022/09/05 01:36:52;;;;;;;9.20;5.45;;;;;;;15.18;80.81;100624.47;4398757;32;33764;-88
2022/09/05 01:39:49;;;;;;;9.00;4.90;;;;;;;15.30;80.44;100626.72;4420457;32;32338;-89
2022/09/05 01:42:49;;;;;;;6.70;4.57;;;;;;;15.02;81.63;100629.94;4415693;32;33640;-89
2022/09/05 01:45:26;;;;;;;8.77;5.03;;;;;;;15.06;81.43;100632.72;4412293;32;34538;-88
2022/09/05 01:48:11;;;;;;;8.15;4.72;;;;;;;15.10;81.22;100626.81;4420284;32;34189;-89
2022/09/05 01:50:49;;;;;;;7.57;5.07;;;;;;;15.37;80.04;100626.09;4433701;32;33641;-89
2022/09/05 01:53:54;;;;;;;9.70;5.20;;;;;;;15.23;80.15;100629.91;4408372;32;32603;-88
2022/09/05 01:56:30;;;;;;;10.73;5.00;;;;;;;15.42;79.66;100635.00;4419394;32;34573;-88
2022/09/05 01:59:16;;;;;;;16.10;5.50;;;;;;;15.56;78.53;100632.03;4431477;32;34774;-88
2022/09/05 02:02:00;;;;;;;7.32;4.68;;;;;;;15.43;78.92;100631.56;4415129;32;33605;-88
2022/09/05 02:04:42;;;;;;;7.90;4.80;;;;;;;15.20;80.04;100629.75;4446599;32;33434;-89
2022/09/05 02:07:31;;;;;;;6.97;4.90;;;;;;;15.18;79.88;100629.69;4450429;27;33826;-77
2022/09/05 02:10:24;;;;;;;8.25;4.97;;;;;;;15.38;79.06;100627.88;4453798;32;33866;-77
2022/09/05 02:13:02;;;;;;;6.72;4.93;;;;;;;15.22;79.92;100630.72;4452460;32;33757;-77
2022/09/05 02:15:44;;;;;;;9.02;5.22;;;;;;;15.25;80.18;100630.84;4446496;32;32923;-77
2022/09/05 02:18:51;;;;;;;8.70;5.50;;;;;;;15.23;80.54;100632.50;4452862;32;33711;-77
2022/09/05 02:21:40;;;;;;;8.68;5.20;;;;;;;14.84;82.61;100632.69;4453888;32;33979;-77
2022/09/05 02:24:35;;;;;;;9.20;4.95;;;;;;;14.83;82.60;100636.13;4453737;32;34404;-77
2022/09/05 02:27:14;;;;;;;8.93;5.30;;;;;;;14.79;82.23;100631.59;4449322;32;33584;-78
2022/09/05 02:30:23;;;;;;;9.18;5.20;;;;;;;14.69;82.73;100639.03;4447664;32;34681;-77
2022/09/05 02:33:03;;;;;;;7.30;5.10;;;;;;;15.01;80.91;100631.66;4451340;32;34697;-77
2022/09/05 02:35:30;;;;;;;6.40;4.78;;;;;;;14.89;81.12;100634.66;4454969;32;33899;-77
2022/09/05 02:38:06;;;;;;;8.80;5.28;;;;;;;14.72;82.12;100626.16;4453737;32;33250;-77
2022/09/05 02:41:03;;;;;;;8.50;5.07;;;;;;;14.80;81.75;100631.69;4453356;32;33635;-77
2022/09/05 02:44:00;;;;;;;7.03;5.12;;;;;;;14.63;82.68;100638.78;4445446;32;34531;-77
2022/09/05 02:47:12;;;;;;;7.62;5.20;;;;;;;14.74;82.21;100632.31;4452046;32;33906;-77
2022/09/05 02:50:15;;;;;;;7.55;4.53;;;;;;;14.88;81.04;100634.59;4452684;32;33131;-78
2022/09/05 02:53:03;;;;;;;8.07;5.37;;;;;;;14.71;82.13;100637.37;4421473;32;33893;-77
2022/09/05 02:56:22;;;;;;;7.07;4.75;;;;;;;14.56;82.68;100636.72;4452836;32;33931;-77
2022/09/05 02:59:28;;;;;;;9.40;5.28;;;;;;;14.45;83.05;100643.22;4441951;32;34536;-77
2022/09/05 03:02:15;;;;;;;9.05;5.10;;;;;;;14.54;83.01;100648.81;4451651;32;33265;-77
2022/09/05 03:05:11;;;;;;;9.63;5.87;;;;;;;14.58;82.70;100645.53;4453378;32;33716;-77
2022/09/05 03:07:58;;;;;;;8.45;5.15;;;;;;;14.64;82.53;100650.09;4443977;32;33891;-77
2022/09/05 03:10:51;;;;;;;8.73;5.80;;;;;;;14.64;82.63;100651.03;4453126;32;34108;-77
2022/09/05 03:13:39;;;;;;;6.60;4.93;;;;;;;14.65;82.90;100647.56;4453000;32;32682;-77
2022/09/05 03:16:42;;;;;;;8.93;5.22;;;;;;;14.61;82.93;100653.50;4457523;32;34566;-77
2022/09/05 03:19:52;;;;;;;6.75;5.30;;;;;;;14.54;83.15;100654.00;4452077;32;34482;-77
2022/09/05 03:22:27;;;;;;;;;;;;;;;14.44;83.65;100654.47;4433509;32;32282;-77
2022/09/05 03:25:04;;;;;;;8.88;5.87;;;;;;;14.35;83.90;100652.34;4458274;32;33579;-77
2022/09/05 03:27:41;;;;;;;9.82;5.55;;;;;;;14.28;83.93;100651.19;4457448;32;34794;-77
2022/09/05 03:30:11;;;;;;;6.57;4.95;;;;;;;14.40;83.12;100655.16;4458405;32;33564;-77
2022/09/05 03:33:07;;;;;;;8.00;4.87;;;;;;;14.32;83.55;100660.91;4458683;32;33940;-77
2022/09/05 03:36:10;;;;;;;9.82;5.10;;;;;;;14.47;82.10;100652.00;4454393;32;34074;-78
2022/09/05 03:39:02;;;;;;;7.78;5.20;;;;;;;14.47;82.00;100658.09;4458259;32;34017;-78
2022/09/05 03:41:58;;;;;;;8.48;5.18;;;;;;;14.50;81.97;100662.53;4457174;32;33890;-77
2022/09/05 03:44:45;;;;;;;7.85;4.65;;;;;;;14.62;81.30;100668.31;4458233;32;33956;-78
2022/09/05 03:47:54;;;;;;;8.73;5.20;;;;;;;14.70;80.83;100674.75;4446850;32;33436;-78
2022/09/05 03:50:57;;;;;;;7.18;5.20;;;;;;;14.56;81.31;100668.00;4435504;32;32083;-77
2022/09/05 03:54:09;;;;;;;7.68;4.53;;;;;;;14.32;82.37;100673.06;4458000;32;33892;-77
2022/09/05 03:56:59;;;;;;;9.52;5.43;;;;;;;14.31;82.74;100680.00;4458237;32;34408;-77
2022/09/05 03:59:56;;;;;;;8.38;5.45;;;;;;;14.14;83.58;100680.97;4457323;32;33366;-77
2022/09/05 04:02:27;;;;;;;9.35;5.57;;;;;;;14.43;82.17;100686.53;4455021;32;33884;-78
2022/09/05 04:05:21;;;;;;;8.32;4.97;;;;;;;14.22;83.37;100682.19;4454542;32;33832;-77
2022/09/05 04:08:13;;;;;;;7.87;5.32;;;;;;;14.33;82.35;100686.19;4450305;32;34021;-78
2022/09/05 04:11:07;;;;;;;7.85;5.25;;;;;;;14.24;82.91;100688.37;4456113;32;34356;-77
2022/09/05 04:13:51;;;;;;;7.62;5.12;;;;;;;14.46;82.11;100686.69;4457099;32;34701;-77
2022/09/05 04:16:27;;;;;;;10.02;5.53;;;;;;;14.34;82.28;100682.72;4454844;32;34708;-77
2022/09/05 04:19:13;;;;;;;9.40;5.80;;;;;;;14.25;83.24;100692.75;4455331;32;34101;-78
2022/09/05 04:21:45;;;;;;;9.15;5.45;;;;;;;14.26;83.65;100707.56;4450731;32;34012;-78
2022/09/05 04:24:27;;;;;;;8.30;5.62;;;;;;;14.56;82.33;100707.13;4452444;32;33995;-79
2022/09/05 04:26:59;;;;;;;25.77;7.22;;;;;;;14.67;81.27;100703.28;4449453;32;34573;-79
2022/09/05 04:29:46;;;;;;;9.00;6.18;;;;;;;14.44;83.24;100706.59;4448682;32;33200;-78
2022/09/05 04:32:30;;;;;;;7.95;5.45;;;;;;;14.62;83.03;100720.47;4446498;32;33369;-78
2022/09/05 04:35:33;;;;;;;9.25;5.55;;;;;;;14.42;83.84;100711.72;4451655;32;34326;-79
2022/09/05 04:38:17;;;;;;;9.20;6.60;;;;;;;14.45;83.63;100711.87;4451063;32;34699;-78
2022/09/05 04:41:10;;;;;;;8.15;5.85;;;;;;;14.63;83.12;100717.03;4447217;32;33725;-78
2022/09/05 04:43:41;;;;;;;9.68;6.57;;;;;;;14.73;82.06;100713.09;4452891;32;33169;-78
2022/09/05 04:46:17;;;;;;;8.23;5.90;;;;;;;14.92;80.80;100725.19;4457948;32;33693;-78
2022/09/05 04:48:51;;;;;;;13.43;6.35;;;;;;;14.84;80.92;100721.37;4452993;32;34658;-78
2022/09/05 04:51:42;;;;;;;8.52;5.65;;;;;;;15.06;79.92;100723.16;4441296;32;33425;-79
2022/09/05 04:54:49;;;;;;;10.07;5.47;;;;;;;15.11;79.08;100726.84;4454167;32;33395;-79
2022/09/05 04:57:34;;;;;;;9.88;5.68;;;;;;;14.96;79.82;100726.22;4451486;32;33968;-78
2022/09/05 05:00:11;;;;;;;11.07;4.93;;;;;;;15.07;79.79;100735.41;4451751;32;33582;-77
2022/09/05 05:03:01;;;;;;;8.25;5.22;;;;;;;14.98;80.10;100728.06;4454155;32;33986;-79
2022/09/05 05:05:58;;;;;;;6.72;5.05;;;;;;;14.82;80.91;100726.53;4453566;32;33542;-77
2022/09/05 05:08:59;;;;;;;13.75;5.32;;;;;;;14.95;80.55;100730.56;4453272;32;34527;-79
2022/09/05 05:11:41;;;;;;;7.78;5.50;;;;;;;15.24;79.06;100730.84;4437818;32;34103;-79
2022/09/05 05:15:00;;;;;;;9.30;5.78;;;;;;;15.20;79.39;100731.53;4451684;32;33813;-78
2022/09/05 05:18:10;;;;;;;7.87;4.53;;;;;;;15.37;78.65;100730.50;4453394;32;32449;-77
2022/09/05 05:21:09;;;;;;;7.95;5.18;;;;;;;15.67;77.60;100728.22;4454410;32;33580;-76
2022/09/05 05:23:40;;;;;;;6.62;4.93;;;;;;;15.83;76.58;100731.47;4452379;32;33550;-76
2022/09/05 05:26:11;;;;;;;8.60;5.32;;;;;;;15.61;77.60;100734.94;4450559;32;34463;-78
2022/09/05 05:28:54;;;;;;;8.52;4.87;;;;;;;15.57;77.66;100733.03;4454336;32;33868;-77
2022/09/05 05:31:31;;;;;;;10.00;4.78;;;;;;;15.38;78.36;100731.44;4450101;32;33971;-77
2022/09/05 05:34:02;;;;;;;6.75;5.12;;;;;;;15.78;76.83;100739.16;4453569;32;33923;-77
2022/09/05 05:37:01;;;;;;;6.40;4.60;;;;;;;15.83;76.93;100736.69;4453374;32;33864;-76
2022/09/05 05:39:30;;;;;;;6.90;4.40;;;;;;;15.88;76.61;100733.44;4454775;32;34212;-77
2022/09/05 05:42:00;;;;;;;7.12;4.57;;;;;;;16.10;75.59;100732.50;4453282;32;33713;-79
2022/09/05 05:44:52;;;;;;;10.18;5.20;;;;;;;16.25;75.06;100732.19;4452855;32;34762;-78
2022/09/05 05:47:41;;;;;;;8.55;4.85;;;;;;;16.52;74.56;100736.62;4454884;32;33909;-78
2022/09/05 05:50:35;;;;;;;8.50;5.20;;;;;;;16.48;73.87;100745.22;4453775;32;34093;-78
2022/09/05 05:53:28;;;;;;;7.00;4.40;;;;;;;16.76;73.21;100740.94;4453407;32;33135;-78
2022/09/05 05:56:29;;;;;;;9.60;4.87;;;;;;;16.86;72.90;100750.91;4454158;32;34534;-78
2022/09/05 05:59:34;;;;;;;7.47;4.80;;;;;;;17.03;72.43;100741.91;4454013;32;34516;-78
2022/09/05 06:02:16;;;;;;;9.00;4.35;;;;;;;17.51;70.29;100745.22;4453934;32;33501;-78
2022/09/05 06:05:23;;;;;;;6.25;4.65;;;;;;;18.23;68.18;100739.53;4451497;32;33861;-78
2022/09/05 06:08:18;;;;;;;6.97;4.62;;;;;;;18.78;66.73;100741.06;4452567;32;34757;-78
2022/09/05 06:11:21;;;;;;;7.90;5.00;;;;;;;19.31;65.16;100737.16;4453675;32;33940;-78
2022/09/05 06:14:47;;;;;;;7.30;4.82;;;;;;;19.27;65.59;100735.31;4453754;32;33164;-78
2022/09/05 06:17:53;;;;;;;7.87;4.37;;;;;;;19.40;64.82;100733.03;4450976;32;34748;-77
2022/09/05 06:21:03;;;;;;;8.88;4.40;;;;;;;19.23;65.27;100739.59;4452056;32;33886;-76
2022/09/05 06:24:25;;;;;;;7.28;4.93;;;;;;;19.26;64.86;100734.44;4439754;32;34517;-78
2022/09/05 06:27:18;;;;;;;7.97;4.28;;;;;;;19.39;65.27;100740.84;4454074;32;33452;-77
2022/09/05 06:30:02;;;;;;;7.60;4.75;;;;;;;19.69;64.45;100735.44;4454973;32;34736;-77
2022/09/05 06:33:01;;;;;;;6.97;5.10;;;;;;;20.03;63.95;100738.84;4453479;32;34783;-76
2022/09/05 06:35:39;;;;;;;7.87;5.00;;;;;;;19.80;64.30;100741.87;4444654;32;33781;-76
2022/09/05 06:38:28;;;;;;;6.57;4.75;;;;;;;19.88;64.43;100746.41;4452938;32;32900;-77
2022/09/05 06:41:12;;;;;;;9.13;4.82;;;;;;;20.39;62.94;100750.97;4454485;32;33695;-76
2022/09/05 06:44:01;;;;;;;9.43;5.70;;;;;;;20.21;62.73;100748.87;4454627;32;34046;-78
2022/09/05 06:46:34;;;;;;;7.25;5.25;;;;;;;20.36;62.45;100753.56;4451057;32;34714;-78
2022/09/05 06:49:28;;;;;;;9.75;5.72;;;;;;;20.54;62.00;100753.91;4442131;32;34177;-77
2022/09/05 06:52:20;;;;;;;8.05;5.15;;;;;;;20.74;61.25;100753.44;4448273;32;34119;-77
2022/09/05 06:55:11;;;;;;;11.90;6.35;;;;;;;21.11;60.48;100759.34;4451725;32;33139;-77
2022/09/05 06:58:00;;;;;;;7.97;5.78;;;;;;;20.81;61.19;100760.59;4453681;32;34913;-77
2022/09/05 07:00:39;;;;;;;7.43;5.57;;;;;;;21.30;60.11;100756.16;4451679;32;33414;-77
2022/09/05 07:03:29;;;;;;;8.32;5.62;;;;;;;20.76;61.09;100762.22;4450488;32;34656;-77
2022/09/05 07:06:08;;;;;;;12.88;5.30;;;;;;;20.63;62.43;100758.50;4453744;32;34004;-77
2022/09/05 07:08:54;;;;;;;11.90;4.97;;;;;;;20.81;61.93;100760.59;4438562;32;33850;-78
2022/09/05 07:11:35;;;;;;;10.95;5.70;;;;;;;20.98;61.06;100759.16;4452429;32;33251;-78
2022/09/05 07:14:07;;;;;;;12.35;5.65;;;;;;;21.25;60.08;100757.84;4453041;32;33693;-78
2022/09/05 07:16:46;;;;;;;8.77;5.20;;;;;;;21.44;59.88;100755.53;4452127;32;33763;-78
2022/09/05 07:19:26;;;;;;;7.75;4.78;;;;;;;21.68;59.41;100757.66;4452226;32;33782;-77
2022/09/05 07:22:12;;;;;;;7.95;5.00;;;;;;;21.90;58.29;100754.44;4454335;32;33109;-78
2022/09/05 07:25:22;;;;;;;7.30;4.35;;;;;;;21.20;59.92;100764.78;4452050;32;32331;-78
2022/09/05 07:28:03;;;;;;;7.20;4.62;;;;;;;21.94;58.26;100765.91;4445387;32;33961;-78
2022/09/05 07:30:58;;;;;;;7.20;4.43;;;;;;;21.83;59.12;100759.59;4451048;32;34477;-78
2022/09/05 07:33:28;;;;;;;7.37;4.80;;;;;;;22.27;57.58;100754.06;4453019;32;34251;-78
2022/09/05 07:36:07;;;;;;;9.55;4.60;;;;;;;22.14;56.27;100764.44;4451451;32;34753;-78
2022/09/05 07:38:37;;;;;;;6.57;4.53;;;;;;;22.03;56.69;100757.25;4438139;32;32336;-78
2022/09/05 07:41:29;;;;;;;7.70;4.30;;;;;;;22.25;56.52;100761.09;4451923;32;33855;-77
2022/09/05 07:44:02;;;;;;;8.77;4.18;;;;;;;22.60;56.09;100757.97;4451838;32;32879;-78
2022/09/05 07:46:32;;;;;;;7.53;3.92;;;;;;;22.60;55.27;100752.69;4451171;32;33756;-79
2022/09/05 07:49:05;;;;;;;6.85;3.58;;;;;;;22.28;53.50;100755.84;4438850;32;33369;-78
2022/09/05 07:51:35;;;;;;;6.97;2.97;;;;;;;22.55;54.15;100750.88;4452196;32;34088;-78
2022/09/05 07:54:26;;;;;;;6.05;2.72;;;;;;;22.48;49.70;100756.97;4452171;32;33759;-78
2022/09/05 07:57:20;;;;;;;6.97;2.95;;;;;;;22.63;50.10;100752.72;4450744;32;32923;-78
2022/09/05 08:00:08;;;;;;;4.37;2.92;;;;;;;23.47;49.00;100749.97;4444407;32;34213;-78
2022/09/05 08:02:54;;;;;;;4.57;2.92;;;;;;;23.94;46.55;100744.12;4454853;32;33650;-78
2022/09/05 08:05:24;;;;;;;4.35;2.70;;;;;;;23.48;47.55;100741.19;4439377;32;33354;-78
2022/09/05 08:08:07;;;;;;;3.62;2.40;;;;;;;24.80;46.43;100741.81;4452842;32;34533;-78
2022/09/05 08:10:44;;;;;;;5.30;2.42;;;;;;;26.29;43.59;100738.97;4453776;32;33505;-79
2022/09/05 08:13:48;;;;;;;5.57;2.67;;;;;;;28.00;39.59;100740.25;4447324;32;34263;-78
2022/09/05 08:16:18;;;;;;;5.87;2.85;;;;;;;29.50;35.31;100741.63;4449540;32;32951;-79
2022/09/05 08:18:48;;;;;;;5.75;2.37;;;;;;;28.81;35.47;100740.94;4420676;32;32618;-79
2022/09/05 08:21:22;;;;;;;3.72;2.28;;;;;;;28.06;37.13;100741.97;4449745;32;34378;-80
2022/09/05 08:24:08;;;;;;;4.30;2.75;;;;;;;27.06;38.24;100737.59;4454728;32;33721;-80
2022/09/05 08:26:44;;;;;;;4.50;2.50;;;;;;;27.39;36.72;100740.88;4449190;32;33066;-79
2022/09/05 08:29:36;;;;;;;4.30;2.60;;;;;;;27.55;37.11;100737.19;4449198;32;34423;-79
2022/09/05 08:32:20;;;;;;;6.20;2.70;;;;;;;29.90;34.06;100739.97;4448495;32;33837;-79
2022/09/05 08:34:53;;;;;;;4.97;2.33;;;;;;;31.21;30.69;100729.03;4450269;32;33554;-79
2022/09/05 08:37:22;;;;;;;5.32;2.67;;;;;;;31.01;30.95;100730.44;4452472;32;34139;-79
2022/09/05 08:39:59;;;;;;;4.03;2.50;;;;;;;29.96;33.02;100735.41;4452634;32;32904;-79
2022/09/05 08:42:45;;;;;;;4.00;2.40;;;;;;;30.71;31.85;100735.59;4452404;32;33903;-79
2022/09/05 08:46:03;;;;;;;4.68;2.60;;;;;;;31.07;30.63;100727.59;4450281;32;34232;-79
2022/09/05 08:48:54;;;;;;;4.47;2.03;;;;;;;28.04;36.23;100734.00;4453572;32;33763;-78
2022/09/05 08:52:07;;;;;;;5.05;2.35;;;;;;;29.82;32.06;100718.78;4454427;32;34678;-78
2022/09/05 08:54:55;;;;;;;3.33;2.40;;;;;;;29.82;33.17;100726.78;4453765;32;33931;-79
2022/09/05 08:57:45;;;;;;;4.87;2.50;;;;;;;29.64;33.87;100721.78;4453682;32;34021;-78
2022/09/05 09:00:14;;;;;;;4.87;2.75;;;;;;;29.51;33.52;100719.34;4449988;32;33429;-79
2022/09/05 09:03:02;;;;;;;4.90;2.92;;;;;;;28.15;36.70;100717.00;4454341;32;33973;-78
2022/09/05 09:05:43;;;;;;;5.32;3.20;;;;;;;27.04;38.71;100718.09;4454609;32;34629;-79
2022/09/05 09:08:34;;;;;;;3.83;2.85;;;;;;;26.09;42.39;100715.13;4454951;32;33901;-79
2022/09/05 09:11:04;;;;;;;5.25;3.22;;;;;;;26.65;40.28;100709.56;4454635;32;32497;-78
2022/09/05 09:13:41;;;;;;;5.00;2.87;;;;;;;26.24;40.40;100702.69;4453397;32;33979;-78
2022/09/05 09:16:29;;;;;;;6.35;3.08;;;;;;;27.83;38.31;100700.50;4453980;32;34016;-78
2022/09/05 09:19:06;;;;;;;6.07;3.35;;;;;;;27.49;40.26;100694.69;4454642;32;33590;-78
2022/09/05 09:21:41;;;;;;;6.53;3.03;;;;;;;26.07;42.58;100695.66;4453298;32;32781;-78
2022/09/05 09:24:32;;;;;;;5.60;3.20;;;;;;;26.95;41.34;100696.94;4453791;32;33653;-78
2022/09/05 09:27:04;;;;;;;9.35;5.20;;;;;;;27.37;40.40;100694.78;4453346;32;33764;-78
2022/09/05 09:29:35;;;;;;;5.53;3.20;;;;;;;27.31;40.18;100695.72;4452976;32;33851;-78
2022/09/05 09:32:30;;;;;;;5.28;3.35;;;;;;;27.57;40.36;100697.25;4452663;32;33730;-78
2022/09/05 09:35:12;;;;;;;4.22;2.95;;;;;;;28.01;38.54;100696.75;4450370;32;33599;-78
2022/09/05 09:37:54;;;;;;;5.68;3.20;;;;;;;27.87;38.80;100706.66;4451576;32;34101;-78
2022/09/05 09:40:35;;;;;;;5.00;3.05;;;;;;;27.62;38.44;100706.97;4452286;32;34974;-78
2022/09/05 09:43:13;;;;;;;5.53;3.35;;;;;;;27.56;39.33;100707.00;4451846;32;33090;-79
2022/09/05 09:45:50;;;;;;;8.38;3.20;;;;;;;27.45;39.54;100699.16;4443409;32;33485;-78
2022/09/05 09:48:55;;;;;;;6.62;3.20;;;;;;;28.19;38.59;100697.41;4454961;32;34838;-78
2022/09/05 09:51:36;;;;;;;6.53;3.10;;;;;;;28.74;35.60;100696.66;4452047;32;33557;-78
2022/09/05 09:54:36;;;;;;;5.95;3.37;;;;;;;28.85;36.05;100692.91;4452577;32;33361;-78
2022/09/05 09:57:35;;;;;;;5.03;2.85;;;;;;;28.40;36.38;100696.25;4453283;32;33714;-78
2022/09/05 10:00:12;;;;;;;7.68;3.00;;;;;;;28.93;37.20;100691.00;4453147;32;33689;-78
2022/09/05 10:03:18;;;;;;;7.57;3.20;;;;;;;28.30;38.25;100684.84;4452752;32;33988;-79
2022/09/05 10:06:35;;;;;;;5.10;3.28;;;;;;;28.75;37.52;100682.41;4447743;32;33329;-79
2022/09/05 10:09:44;;;;;;;5.30;3.28;;;;;;;26.60;39.81;100687.47;4443101;32;34781;-78
2022/09/05 10:12:49;;;;;;;5.45;3.20;;;;;;;28.23;37.71;100688.47;4455216;32;33948;-79
2022/09/05 10:16:02;;;;;;;5.10;3.35;;;;;;;28.48;38.17;100688.13;4444170;32;34782;-80
2022/09/05 10:18:47;;;;;;;4.95;3.37;;;;;;;27.48;38.50;100682.25;4448095;32;34234;-78
2022/09/05 10:21:33;;;;;;;5.25;3.20;;;;;;;28.09;38.41;100679.81;4446848;32;33997;-79
2022/09/05 10:24:13;;;;;;;6.10;2.90;;;;;;;28.74;37.07;100674.41;4453797;32;33910;-79
2022/09/05 10:26:56;;;;;;;4.72;2.95;;;;;;;28.75;36.83;100677.06;4453538;32;33418;-78
2022/09/05 10:29:32;;;;;;;4.93;3.00;;;;;;;28.35;36.85;100674.97;4451209;32;33061;-79
2022/09/05 10:32:07;;;;;;;6.85;2.90;;;;;;;28.74;35.69;100669.09;4443434;32;34525;-79
2022/09/05 10:34:59;;;;;;;5.57;3.03;;;;;;;27.65;37.84;100674.97;4453060;32;33077;-79
2022/09/05 10:37:48;;;;;;;5.05;3.20;;;;;;;28.67;37.00;100673.66;4448388;32;34156;-79
2022/09/05 10:40:21;;;;;;;5.30;3.05;;;;;;;27.85;37.30;100665.84;4446501;32;33681;-79
2022/09/05 10:43:01;;;;;;;6.25;3.00;;;;;;;28.54;37.00;100661.41;4449370;32;33516;-78
2022/09/05 10:45:43;;;;;;;4.70;3.17;;;;;;;29.40;36.51;100654.63;4451766;32;33991;-78
2022/09/05 10:48:21;;;;;;;5.20;2.87;;;;;;;29.82;33.83;100649.34;4450411;32;33661;-78
2022/09/05 10:51:02;;;;;;;5.30;2.70;;;;;;;29.88;35.08;100645.66;4449975;32;33287;-79
2022/09/05 10:53:48;;;;;;;5.35;3.67;;;;;;;30.33;33.70;100646.47;4438847;32;33434;-78
2022/09/05 10:56:24;;;;;;;4.12;2.47;;;;;;;30.03;32.92;100634.63;4456049;32;34055;-79
2022/09/05 10:59:00;;;;;;;6.12;2.83;;;;;;;29.05;34.79;100642.75;4458614;32;33838;-78
2022/09/05 11:02:16;;;;;;;4.40;2.90;;;;;;;29.38;34.50;100640.41;4438736;32;31673;-78
2022/09/05 11:05:19;;;;;;;6.40;2.60;;;;;;;29.62;34.29;100639.06;4451014;32;34328;-79
2022/09/05 11:08:05;;;;;;;4.62;2.78;;;;;;;28.96;33.91;100634.94;4449953;32;34583;-79
2022/09/05 11:11:02;;;;;;;5.65;2.87;;;;;;;28.95;35.27;100635.84;4454517;32;33484;-80
2022/09/05 11:13:50;;;;;;;8.70;3.10;;;;;;;27.74;37.09;100635.81;4449207;32;33445;-77
2022/09/05 11:16:35;;;;;;;5.47;2.80;;;;;;;27.74;36.64;100635.81;4448764;32;32200;-78
2022/09/05 11:19:13;;;;;;;3.83;2.65;;;;;;;28.33;37.28;100630.63;4445352;32;34890;-78
2022/09/05 11:22:00;;;;;;;5.70;2.67;;;;;;;28.83;36.29;100627.16;4450004;32;33702;-81
2022/09/05 11:25:02;;;;;;;4.15;2.50;;;;;;;29.14;35.12;100621.28;4453118;32;33183;-79
2022/09/05 11:27:35;;;;;;;4.57;2.53;;;;;;;29.02;33.06;100622.38;4453011;32;34555;-79
2022/09/05 11:30:11;;;;;;;3.75;2.75;;;;;;;29.85;32.41;100625.25;4451364;32;34678;-80
2022/09/05 11:33:08;;;;;;;4.43;2.70;;;;;;;29.34;34.38;100617.34;4450173;32;34476;-80
2022/09/05 11:36:06;;;;;;;5.07;2.62;;;;;;;29.01;35.20;100619.72;4453934;32;33158;-80
2022/09/05 11:39:00;;;;;;;5.37;2.95;;;;;;;28.81;35.48;100612.09;4453956;32;34064;-80
2022/09/05 11:42:05;;;;;;;4.72;2.72;;;;;;;29.04;36.79;100619.69;4453028;32;33963;-80
2022/09/05 11:44:37;;;;;;;3.50;2.37;;;;;;;28.99;35.94;100621.53;4451274;32;33756;-79
2022/09/05 11:47:26;;;;;;;4.85;2.70;;;;;;;28.34;36.46;100617.28;4451855;32;32121;-80
2022/09/05 11:50:26;;;;;;;4.28;2.75;;;;;;;28.15;36.69;100624.66;4452910;32;34198;-79
2022/09/05 11:53:21;;;;;;;5.35;2.70;;;;;;;26.64;39.07;100610.34;4452865;32;34386;-79
2022/09/05 11:56:00;;;;;;;5.85;2.87;;;;;;;26.59;39.51;100608.62;4451632;32;33578;-80
2022/09/05 11:58:40;;;;;;;5.60;3.10;;;;;;;26.37;40.02;100611.41;4453459;32;33415;-79
2022/09/05 12:01:33;;;;;;;5.05;3.10;;;;;;;26.65;40.53;100609.44;4449916;32;34563;-79
2022/09/05 12:04:22;;;;;;;4.43;2.75;;;;;;;27.00;39.50;100610.03;4453629;32;33765;-75
2022/09/05 12:06:59;;;;;;;5.37;2.70;;;;;;;28.51;35.29;100602.78;4453649;32;33841;-77
2022/09/05 12:09:30;;;;;;;4.45;2.67;;;;;;;29.02;35.02;100610.84;4453231;32;33967;-77
2022/09/05 12:12:25;;;;;;;4.65;2.78;;;;;;;29.19;35.69;100600.75;4453288;32;34669;-77
2022/09/05 12:15:16;;;;;;;3.90;2.80;;;;;;;29.00;35.58;100601.97;4453332;32;33966;-76
2022/09/05 12:18:14;;;;;;;5.68;3.20;;;;;;;27.72;37.98;100601.25;4453251;32;33598;-77
2022/09/05 12:20:57;;;;;;;4.25;3.08;;;;;;;27.20;38.70;100601.84;4454697;32;33401;-76
2022/09/05 12:24:01;;;;;;;5.18;3.03;;;;;;;26.62;39.97;100603.31;4451995;32;34437;-77
2022/09/05 12:27:02;;;;;;;5.72;3.17;;;;;;;26.76;40.37;100590.75;4451459;32;33864;-77
2022/09/05 12:29:55;;;;;;;5.05;3.20;;;;;;;26.98;38.78;100595.88;4452819;32;32515;-78
2022/09/05 12:32:27;;;;;;;4.30;2.87;;;;;;;27.73;37.01;100591.50;4453423;32;32170;-78
2022/09/05 12:35:40;;;;;;;5.35;2.90;;;;;;;27.84;36.94;100590.44;4449384;32;33781;-73
2022/09/05 12:38:46;;;;;;;6.00;3.30;;;;;;;28.43;37.10;100589.59;4428214;32;33762;-77
2022/09/05 12:41:59;;;;;;;4.47;2.90;;;;;;;28.00;38.29;100591.12;4449558;32;34604;-78
2022/09/05 12:44:57;;;;;;;5.70;2.87;;;;;;;28.17;36.77;100576.69;4454601;32;32972;-78
2022/09/05 12:47:28;;;;;;;5.43;3.00;;;;;;;29.20;35.53;100577.62;4450379;32;34577;-77
2022/09/05 12:50:01;;;;;;;5.03;3.00;;;;;;;28.88;35.07;100575.53;4455036;32;32048;-77
2022/09/05 12:52:45;;;;;;;4.75;2.80;;;;;;;28.51;36.38;100561.09;4442834;32;32188;-78
2022/09/05 12:55:16;;;;;;;3.95;2.55;;;;;;;28.32;37.43;100570.22;4462758;32;33944;-77
2022/09/05 12:57:44;;;;;;;5.93;2.95;;;;;;;28.28;37.92;100568.50;4438950;32;33088;-78
2022/09/05 13:00:45;;;;;;;5.10;2.87;;;;;;;28.81;35.67;100559.63;4452564;32;33514;-77
2022/09/05 13:03:36;;;;;;;4.72;2.70;;;;;;;29.47;34.09;100560.16;4452412;32;33655;-77